createdAt,value
2022-10-08T00:01:12.504Z,98806.50
2022-10-08T00:03:43.431Z,98814.13
2022-10-08T00:06:15.107Z,98821.69
2022-10-08T00:08:53.974Z,98814.41
2022-10-08T00:11:23.639Z,98807.06
2022-10-08T00:13:51.609Z,98806.91
2022-10-08T00:16:30.323Z,98804.66
2022-10-08T00:19:01.313Z,98804.00
2022-10-08T00:21:31.674Z,98798.88
2022-10-08T00:23:59.241Z,98803.25
2022-10-08T00:26:28.844Z,98804.72
2022-10-08T00:28:57.416Z,98802.06
2022-10-08T00:31:28.858Z,98800.47
2022-10-08T00:33:57.239Z,98799.13
2022-10-08T00:36:26.966Z,98799.63
2022-10-08T00:38:56.734Z,98798.59
2022-10-08T00:41:25.614Z,98793.38
2022-10-08T00:43:55.091Z,98793.38
2022-10-08T00:46:25.324Z,98797.03
2022-10-08T00:49:01.795Z,98793.31
2022-10-08T00:51:29.972Z,98799.03
2022-10-08T00:53:56.657Z,98799.69
2022-10-08T00:56:24.301Z,98804.88
2022-10-08T00:58:52.184Z,98802.47
2022-10-08T01:01:19.933Z,98791.22
2022-10-08T01:03:46.603Z,98795.34
2022-10-08T01:06:20.447Z,98795.34
2022-10-08T01:09:02.260Z,98796.19
2022-10-08T01:11:44.302Z,98791.09
2022-10-08T01:14:39.564Z,98787.94
2022-10-08T01:17:22.430Z,98791.22
2022-10-08T01:20:05.569Z,98782.25
2022-10-08T01:22:47.769Z,98788.63
2022-10-08T01:25:38.329Z,98775.34
2022-10-08T01:28:21.359Z,98772.91
2022-10-08T01:31:15.787Z,98776.16
2022-10-08T01:33:50.931Z,98781.28
2022-10-08T01:36:19.968Z,98781.56
2022-10-08T01:38:53.357Z,98772.84
2022-10-08T01:41:24.905Z,98771.16
2022-10-08T01:44:01.893Z,98769.22
2022-10-08T01:46:31.760Z,98771.66
2022-10-08T01:49:04.612Z,98769.22
2022-10-08T01:51:40.871Z,98767.16
2022-10-08T01:54:09.800Z,98770.41
2022-10-08T01:56:39.936Z,98769.63
2022-10-08T01:59:18.292Z,98768.00
2022-10-08T02:01:59.996Z,98760.78
2022-10-08T02:04:33.219Z,98764.16
2022-10-08T02:07:02.623Z,98758.03
2022-10-08T02:09:32.404Z,98765.97
2022-10-08T02:11:59.072Z,98762.84
2022-10-08T02:14:27.951Z,98769.56
2022-10-08T02:17:17.824Z,98758.59
2022-10-08T02:19:53.047Z,98757.34
2022-10-08T02:22:24.357Z,98757.97
2022-10-08T02:24:57.256Z,98759.59
2022-10-08T02:27:33.328Z,98760.72
2022-10-08T02:30:11.119Z,98756.72
2022-10-08T02:32:51.081Z,98751.50
2022-10-08T02:35:25.409Z,98756.16
2022-10-08T02:37:59.668Z,98764.72
2022-10-08T02:40:30.479Z,98753.78
2022-10-08T02:43:05.449Z,98760.25
2022-10-08T02:45:38.179Z,98758.19
2022-10-08T02:48:11.875Z,98758.59
2022-10-08T02:50:43.218Z,98759.75
2022-10-08T02:53:14.640Z,98756.91
2022-10-08T02:55:54.813Z,98766.13
2022-10-08T02:58:22.030Z,98765.81
2022-10-08T03:01:06.089Z,98765.22
2022-10-08T03:03:36.843Z,98765.00
2022-10-08T03:06:08.857Z,98765.91
2022-10-08T03:08:41.142Z,98769.84
2022-10-08T03:11:07.837Z,98766.75
2022-10-08T03:13:39.643Z,98771.81
2022-10-08T03:16:11.460Z,98766.97
2022-10-08T03:18:39.000Z,98769.63
2022-10-08T03:21:08.861Z,98770.50
2022-10-08T03:23:35.837Z,98773.09
2022-10-08T03:26:02.450Z,98783.09
2022-10-08T03:28:29.137Z,98778.03
2022-10-08T03:30:55.910Z,98781.56
2022-10-08T03:33:23.622Z,98780.72
2022-10-08T03:35:50.368Z,98778.84
2022-10-08T03:38:17.476Z,98779.25
2022-10-08T03:40:54.791Z,98780.38
2022-10-08T03:43:22.086Z,98780.31
2022-10-08T03:45:52.375Z,98788.16
2022-10-08T03:48:20.595Z,98787.03
2022-10-08T03:50:57.262Z,98786.97
2022-10-08T03:53:25.166Z,98790.31
2022-10-08T03:55:52.400Z,98792.22
2022-10-08T03:58:19.662Z,98786.09
2022-10-08T04:01:03.394Z,98787.94
2022-10-08T04:03:31.449Z,98787.78
2022-10-08T04:05:58.481Z,98778.66
2022-10-08T04:08:26.156Z,98772.75
2022-10-08T04:10:56.391Z,98781.97
2022-10-08T04:13:26.497Z,98777.13
2022-10-08T04:15:53.144Z,98782.66
2022-10-08T04:18:19.760Z,98777.22
2022-10-08T04:20:46.405Z,98780.16
2022-10-08T04:23:13.085Z,98781.41
2022-10-08T04:25:49.268Z,98783.22
2022-10-08T04:28:15.908Z,98779.56
2022-10-08T04:30:42.617Z,98775.22
2022-10-08T04:33:09.401Z,98777.91
2022-10-08T04:35:38.276Z,98784.28
2022-10-08T04:38:04.874Z,98780.03
2022-10-08T04:40:31.492Z,98783.47
2022-10-08T04:42:58.355Z,98786.81
2022-10-08T04:45:24.968Z,98786.34
2022-10-08T04:47:51.614Z,98792.09
2022-10-08T04:50:18.239Z,98786.69
2022-10-08T04:52:45.271Z,98785.34
2022-10-08T04:55:12.081Z,98792.88
2022-10-08T04:57:38.704Z,98789.56
2022-10-08T05:00:18.414Z,98798.66
2022-10-08T05:02:46.136Z,98795.47
2022-10-08T05:05:13.055Z,98795.91
2022-10-08T05:07:39.692Z,98798.81
2022-10-08T05:10:06.642Z,98796.56
2022-10-08T05:12:33.471Z,98798.28
2022-10-08T05:15:00.165Z,98799.59
2022-10-08T05:17:26.965Z,98794.50
2022-10-08T05:19:53.668Z,98800.41
2022-10-08T05:22:20.307Z,98797.31
2022-10-08T05:24:46.904Z,98806.34
2022-10-08T05:27:13.538Z,98812.38
2022-10-08T05:29:40.154Z,98809.97
2022-10-08T05:32:10.127Z,98815.09
2022-10-08T05:34:36.760Z,98811.22
2022-10-08T05:37:03.421Z,98812.44
2022-10-08T05:39:30.295Z,98814.91
2022-10-08T05:41:56.916Z,98811.25
2022-10-08T05:44:23.565Z,98816.75
2022-10-08T05:46:50.264Z,98820.22
2022-10-08T05:49:23.154Z,98817.56
2022-10-08T05:51:50.618Z,98818.47
2022-10-08T05:54:18.761Z,98820.03
2022-10-08T05:56:45.650Z,98827.59
2022-10-08T05:59:27.634Z,98831.06
2022-10-08T06:01:54.315Z,98836.06
2022-10-08T06:04:21.082Z,98832.75
2022-10-08T06:06:48.035Z,98826.69
2022-10-08T06:09:18.308Z,98830.47
2022-10-08T06:11:45.651Z,98838.28
2022-10-08T06:14:14.071Z,98840.13
2022-10-08T06:16:41.139Z,98841.09
2022-10-08T06:19:08.536Z,98845.19
2022-10-08T06:21:36.220Z,98846.97
2022-10-08T06:24:05.525Z,98845.94
2022-10-08T06:26:36.612Z,98847.41
2022-10-08T06:29:05.848Z,98857.63
2022-10-08T06:31:34.366Z,98856.56
2022-10-08T06:34:04.116Z,98858.91
2022-10-08T06:36:31.707Z,98856.72
2022-10-08T06:39:00.368Z,98862.25
2022-10-08T06:41:30.424Z,98864.88
2022-10-08T06:43:57.192Z,98861.00
2022-10-08T06:46:24.035Z,98869.81
2022-10-08T06:48:50.892Z,98871.28
2022-10-08T06:51:18.810Z,98866.66
2022-10-08T06:53:51.550Z,98871.09
2022-10-08T06:56:18.181Z,98874.59
2022-10-08T06:58:46.053Z,98871.81
2022-10-08T07:01:17.372Z,98888.19
2022-10-08T07:03:44.441Z,98890.44
2022-10-08T07:06:12.755Z,98888.03
2022-10-08T07:08:40.081Z,98887.97
2022-10-08T07:11:17.026Z,98886.16
2022-10-08T07:13:44.838Z,98887.56
2022-10-08T07:16:20.548Z,98887.16
2022-10-08T07:18:48.668Z,98888.72
2022-10-08T07:21:17.955Z,98887.41
2022-10-08T07:23:44.988Z,98889.84
2022-10-08T07:26:18.254Z,98884.84
2022-10-08T07:29:04.296Z,98883.00
2022-10-08T07:31:33.757Z,98869.78
2022-10-08T07:34:02.694Z,98868.09
2022-10-08T07:36:30.341Z,98864.09
2022-10-08T07:39:01.839Z,98866.03
2022-10-08T07:41:30.032Z,98861.25
2022-10-08T07:43:59.767Z,98866.09
2022-10-08T07:46:29.385Z,98860.19
2022-10-08T07:48:59.156Z,98854.72
2022-10-08T07:51:27.231Z,98857.53
2022-10-08T07:53:55.212Z,98882.97
2022-10-08T07:56:25.318Z,98881.34
2022-10-08T07:58:52.320Z,98889.19
2022-10-08T08:01:21.823Z,98888.16
2022-10-08T08:03:59.413Z,98893.22
2022-10-08T08:06:27.886Z,98888.59
2022-10-08T08:08:54.841Z,98900.03
2022-10-08T08:11:25.254Z,98895.69
2022-10-08T08:13:56.565Z,98903.06
2022-10-08T08:16:25.967Z,98906.88
2022-10-08T08:18:55.910Z,98902.66
2022-10-08T08:21:26.875Z,98909.22
2022-10-08T08:23:55.704Z,98907.72
2022-10-08T08:26:28.792Z,98907.72
2022-10-08T08:28:58.066Z,98905.19
2022-10-08T08:31:25.978Z,98903.19
2022-10-08T08:33:55.506Z,98904.97
2022-10-08T08:36:27.999Z,98913.09
2022-10-08T08:38:54.717Z,98915.69
2022-10-08T08:41:23.356Z,98913.22
2022-10-08T08:43:58.604Z,98915.22
2022-10-08T08:46:27.894Z,98914.91
2022-10-08T08:48:58.292Z,98915.59
2022-10-08T08:51:24.959Z,98911.47
2022-10-08T08:53:51.688Z,98914.47
2022-10-08T08:56:22.756Z,98910.50
2022-10-08T08:59:00.149Z,98914.47
2022-10-08T09:01:35.910Z,98914.63
2022-10-08T09:04:11.832Z,98913.53
2022-10-08T09:06:39.829Z,98917.56
2022-10-08T09:09:24.898Z,98920.31
2022-10-08T09:11:51.601Z,98914.84
2022-10-08T09:14:33.558Z,98919.94
2022-10-08T09:17:09.576Z,98923.84
2022-10-08T09:19:39.172Z,98913.38
2022-10-08T09:22:23.472Z,98913.81
2022-10-08T09:24:55.190Z,98925.53
2022-10-08T09:27:21.796Z,98925.78
2022-10-08T09:29:48.448Z,98918.41
2022-10-08T09:32:19.048Z,98919.44
2022-10-08T09:34:48.382Z,98918.25
2022-10-08T09:37:25.925Z,98909.38
2022-10-08T09:40:08.417Z,98902.47
2022-10-08T09:42:35.024Z,98897.97
2022-10-08T09:45:04.002Z,98897.41
2022-10-08T09:47:31.008Z,98898.41
2022-10-08T09:50:19.130Z,98900.44
2022-10-08T09:52:49.921Z,98897.84
2022-10-08T09:55:16.727Z,98887.22
2022-10-08T09:57:46.959Z,98896.81
2022-10-08T10:00:31.772Z,98918.47
2022-10-08T10:03:00.325Z,98915.56
2022-10-08T10:05:29.875Z,98914.06
2022-10-08T10:07:57.022Z,98904.84
2022-10-08T10:10:24.593Z,98912.13
2022-10-08T10:12:56.362Z,98907.75
2022-10-08T10:15:31.534Z,98909.28
2022-10-08T10:18:02.350Z,98911.22
2022-10-08T10:20:36.536Z,98904.25
2022-10-08T10:23:11.261Z,98912.22
2022-10-08T10:25:46.075Z,98902.72
2022-10-08T10:28:21.108Z,98889.78
2022-10-08T10:31:03.184Z,98892.19
2022-10-08T10:33:34.382Z,98895.38
2022-10-08T10:36:06.859Z,98887.16
2022-10-08T10:38:43.190Z,98881.41
2022-10-08T10:41:11.041Z,98880.59
2022-10-08T10:43:45.067Z,98879.31
2022-10-08T10:46:27.014Z,98871.13
2022-10-08T10:48:55.220Z,98880.97
2022-10-08T10:51:36.976Z,98866.63
2022-10-08T10:54:11.512Z,98875.75
2022-10-08T10:56:46.117Z,98873.91
2022-10-08T10:59:31.075Z,98869.28
2022-10-08T11:02:03.961Z,98871.03
2022-10-08T11:04:43.085Z,98863.53
2022-10-08T11:07:25.411Z,98865.16
2022-10-08T11:10:11.954Z,98853.00
2022-10-08T11:12:53.020Z,98860.53
2022-10-08T11:15:30.814Z,98859.81
2022-10-08T11:18:23.303Z,98860.75
2022-10-08T11:21:21.662Z,98853.72
2022-10-08T11:24:03.508Z,98843.63
2022-10-08T11:26:34.247Z,98843.63
2022-10-08T11:29:16.067Z,98836.34
2022-10-08T11:31:46.397Z,98843.84
2022-10-08T11:34:21.822Z,98842.34
2022-10-08T11:37:15.575Z,98842.94
2022-10-08T11:40:12.732Z,98841.91
2022-10-08T11:42:56.390Z,98838.97
2022-10-08T11:45:23.089Z,98831.81
2022-10-08T11:47:54.561Z,98828.00
2022-10-08T11:50:23.545Z,98819.72
2022-10-08T11:52:50.588Z,98815.63
2022-10-08T11:55:25.730Z,98807.66
2022-10-08T11:58:07.583Z,98808.13
2022-10-08T12:00:45.333Z,98800.72
2022-10-08T12:03:33.298Z,98804.03
2022-10-08T12:06:15.279Z,98804.19
2022-10-08T12:08:53.242Z,98791.88
2022-10-08T12:11:38.638Z,98793.63
2022-10-08T12:14:28.457Z,98798.34
2022-10-08T12:16:55.018Z,98786.16
2022-10-08T12:19:38.005Z,98784.25
2022-10-08T12:22:25.254Z,98784.78
2022-10-08T12:24:57.714Z,98782.44
2022-10-08T12:27:27.476Z,98775.97
2022-10-08T12:30:16.873Z,98775.25
2022-10-08T12:32:43.522Z,98774.53
2022-10-08T12:35:28.486Z,98763.25
2022-10-08T12:38:30.482Z,98764.31
2022-10-08T12:41:11.963Z,98771.72
2022-10-08T12:44:00.785Z,98760.28
2022-10-08T12:46:57.893Z,98755.78
2022-10-08T12:49:30.687Z,98751.53
2022-10-08T12:51:57.602Z,98752.31
2022-10-08T12:54:27.921Z,98755.34
2022-10-08T12:56:55.541Z,98754.31
2022-10-08T12:59:25.377Z,98761.22
2022-10-08T13:01:53.942Z,98755.63
2022-10-08T13:04:26.204Z,98759.50
2022-10-08T13:06:55.203Z,98749.59
2022-10-08T13:09:21.816Z,98759.06
2022-10-08T13:11:53.716Z,98749.22
2022-10-08T13:14:24.385Z,98750.94
2022-10-08T13:16:51.357Z,98753.13
2022-10-08T13:19:20.187Z,98746.69
2022-10-08T13:22:05.140Z,98747.00
2022-10-08T13:24:40.760Z,98752.16
2022-10-08T13:27:23.701Z,98743.59
2022-10-08T13:29:50.362Z,98744.22
2022-10-08T13:32:21.853Z,98753.88
2022-10-08T13:34:52.469Z,98752.31
2022-10-08T13:37:27.836Z,98744.81
2022-10-08T13:39:58.846Z,98740.09
2022-10-08T13:42:29.893Z,98739.00
2022-10-08T13:44:59.172Z,98741.19
2022-10-08T13:47:27.397Z,98733.41
2022-10-08T13:50:00.350Z,98737.44
2022-10-08T13:52:29.718Z,98737.19
2022-10-08T13:55:01.494Z,98737.72
2022-10-08T13:57:28.161Z,98734.22
2022-10-08T13:59:55.239Z,98743.88
2022-10-08T14:02:21.947Z,98737.72
2022-10-08T14:04:48.686Z,98737.16
2022-10-08T14:07:16.301Z,98734.22
2022-10-08T14:09:42.939Z,98732.91
2022-10-08T14:12:10.241Z,98732.41
2022-10-08T14:14:36.921Z,98723.53
2022-10-08T14:17:03.519Z,98725.97
2022-10-08T14:19:30.227Z,98731.88
2022-10-08T14:21:57.387Z,98721.94
2022-10-08T14:24:24.056Z,98723.28
2022-10-08T14:26:50.874Z,98725.69
2022-10-08T14:29:17.558Z,98725.16
2022-10-08T14:31:44.290Z,98714.44
2022-10-08T14:34:10.988Z,98714.44
2022-10-08T14:36:41.118Z,98718.97
2022-10-08T14:39:09.951Z,98715.47
2022-10-08T14:41:37.002Z,98718.72
2022-10-08T14:44:03.654Z,98715.25
2022-10-08T14:46:30.340Z,98712.81
2022-10-08T14:48:57.084Z,98701.81
2022-10-08T14:51:23.821Z,98706.91
2022-10-08T14:53:52.279Z,98709.06
2022-10-08T14:56:18.938Z,98706.94
2022-10-08T14:58:45.800Z,98703.94
2022-10-08T15:01:12.437Z,98698.06
2022-10-08T15:03:39.098Z,98698.88
2022-10-08T15:06:05.967Z,98703.69
2022-10-08T15:08:33.573Z,98689.75
2022-10-08T15:11:02.302Z,98692.41
2022-10-08T15:13:29.184Z,98700.16
2022-10-08T15:15:55.830Z,98698.22
2022-10-08T15:18:23.003Z,98700.63
2022-10-08T15:20:59.256Z,98706.78
2022-10-08T15:23:27.048Z,98700.59
2022-10-08T15:26:11.993Z,98703.63
2022-10-08T15:28:38.690Z,98709.44
2022-10-08T15:31:12.832Z,98702.97
2022-10-08T15:33:40.937Z,98704.56
2022-10-08T15:36:31.942Z,98711.53
2022-10-08T15:39:08.713Z,98714.94
2022-10-08T15:41:37.200Z,98716.00
2022-10-08T15:44:09.494Z,98716.00
2022-10-08T15:46:36.954Z,98717.09
2022-10-08T15:49:03.991Z,98726.47
2022-10-08T15:51:31.753Z,98724.00
2022-10-08T15:53:59.114Z,98726.41
2022-10-08T15:56:26.156Z,98727.41
2022-10-08T15:58:53.374Z,98734.66
2022-10-08T16:01:23.481Z,98733.09
2022-10-08T16:03:52.565Z,98733.88
2022-10-08T16:06:22.423Z,98741.84
2022-10-08T16:08:49.402Z,98738.09
2022-10-08T16:11:23.130Z,98741.25
2022-10-08T16:13:55.751Z,98750.06
2022-10-08T16:16:26.816Z,98746.53
2022-10-08T16:19:01.199Z,98746.22
2022-10-08T16:21:33.686Z,98742.19
2022-10-08T16:24:00.872Z,98748.06
2022-10-08T16:26:29.297Z,98748.59
2022-10-08T16:28:59.035Z,98753.66
2022-10-08T16:31:28.231Z,98760.06
2022-10-08T16:33:57.252Z,98761.13
2022-10-08T16:36:24.629Z,98773.94
2022-10-08T16:38:55.129Z,98775.03
2022-10-08T16:41:23.741Z,98764.34
2022-10-08T16:43:53.187Z,98768.34
2022-10-08T16:46:22.531Z,98766.66
2022-10-08T16:48:52.234Z,98772.50
2022-10-08T16:51:19.681Z,98775.16
2022-10-08T16:53:49.523Z,98775.13
2022-10-08T16:56:17.295Z,98776.16
2022-10-08T16:58:44.015Z,98776.69
2022-10-08T17:01:10.744Z,98792.16
2022-10-08T17:03:37.655Z,98794.84
2022-10-08T17:06:04.817Z,98794.09
2022-10-08T17:08:31.495Z,98801.53
2022-10-08T17:11:03.765Z,98814.31
2022-10-08T17:13:30.436Z,98812.97
2022-10-08T17:15:59.321Z,98819.63
2022-10-08T17:18:27.542Z,98825.19
2022-10-08T17:20:55.999Z,98830.25
2022-10-08T17:23:24.556Z,98827.00
2022-10-08T17:25:57.196Z,98829.94
2022-10-08T17:28:29.442Z,98833.38
2022-10-08T17:30:58.988Z,98840.06
2022-10-08T17:33:28.173Z,98834.75
2022-10-08T17:36:05.732Z,98836.75
2022-10-08T17:38:33.605Z,98839.00
2022-10-08T17:41:00.628Z,98836.22
2022-10-08T17:43:27.394Z,98835.66
2022-10-08T17:45:54.119Z,98844.28
2022-10-08T17:48:21.109Z,98853.25
2022-10-08T17:50:47.792Z,98857.97
2022-10-08T17:53:14.518Z,98851.38
2022-10-08T17:55:41.184Z,98857.97
2022-10-08T17:58:07.859Z,98860.97
2022-10-08T18:00:34.510Z,98868.78
2022-10-08T18:03:01.332Z,98868.78
2022-10-08T18:05:28.069Z,98871.81
2022-10-08T18:07:54.704Z,98872.28
2022-10-08T18:10:21.487Z,98875.13
2022-10-08T18:12:48.690Z,98862.81
2022-10-08T18:15:15.729Z,98872.13
2022-10-08T18:17:42.382Z,98869.97
2022-10-08T18:20:09.187Z,98883.84
2022-10-08T18:22:38.593Z,98887.03
2022-10-08T18:25:05.758Z,98889.69
2022-10-08T18:27:32.392Z,98892.38
2022-10-08T18:29:59.068Z,98899.34
2022-10-08T18:32:25.756Z,98905.66
2022-10-08T18:34:52.425Z,98908.50
2022-10-08T18:37:20.623Z,98924.44
2022-10-08T18:39:47.385Z,98919.34
2022-10-08T18:42:14.023Z,98917.34
2022-10-08T18:44:40.746Z,98923.88
2022-10-08T18:47:07.786Z,98923.81
2022-10-08T18:49:35.114Z,98923.97
2022-10-08T18:52:02.163Z,98931.09
2022-10-08T18:54:28.993Z,98945.78
2022-10-08T18:56:56.905Z,98950.09
2022-10-08T18:59:24.195Z,98962.31
2022-10-08T19:01:50.977Z,98954.59
2022-10-08T19:04:21.182Z,98967.19
2022-10-08T19:06:50.398Z,98968.25
2022-10-08T19:09:17.302Z,98968.50
2022-10-08T19:11:47.697Z,98976.41
2022-10-08T19:14:17.598Z,98984.03
2022-10-08T19:16:45.235Z,98984.88
2022-10-08T19:19:22.206Z,98987.16
2022-10-08T19:21:50.184Z,98988.13
2022-10-08T19:24:19.984Z,98988.16
2022-10-08T19:26:47.609Z,98994.16
2022-10-08T19:29:23.706Z,99003.75
2022-10-08T19:31:50.600Z,99008.34
2022-10-08T19:34:20.743Z,99017.78
2022-10-08T19:36:48.329Z,99020.56
2022-10-08T19:39:18.415Z,99010.78
2022-10-08T19:41:45.760Z,99024.91
2022-10-08T19:44:12.843Z,99023.63
2022-10-08T19:46:39.627Z,99027.88
2022-10-08T19:49:07.854Z,99032.13
2022-10-08T19:51:35.594Z,99038.19
2022-10-08T19:54:02.387Z,99045.78
2022-10-08T19:56:31.030Z,99052.63
2022-10-08T19:58:57.992Z,99057.47
2022-10-08T20:01:28.773Z,99045.50
2022-10-08T20:03:56.990Z,99056.09
2022-10-08T20:06:26.812Z,99049.88
2022-10-08T20:08:55.169Z,99063.66
2022-10-08T20:11:22.505Z,99075.84
2022-10-08T20:13:51.186Z,99062.06
2022-10-08T20:16:24.952Z,99052.22
2022-10-08T20:18:54.439Z,99062.66
2022-10-08T20:21:22.730Z,99065.09
2022-10-08T20:23:52.877Z,99068.34
2022-10-08T20:26:25.289Z,99069.06
2022-10-08T20:28:54.703Z,99074.84
2022-10-08T20:31:24.435Z,99074.94
2022-10-08T20:34:02.273Z,99078.78
2022-10-08T20:36:30.100Z,99080.16
2022-10-08T20:38:57.885Z,99084.22
2022-10-08T20:41:30.602Z,99087.38
2022-10-08T20:44:02.937Z,99090.38
2022-10-08T20:46:31.344Z,99097.91
2022-10-08T20:48:58.283Z,99098.81
2022-10-08T20:51:26.459Z,99109.25
2022-10-08T20:53:56.730Z,99111.34
2022-10-08T20:56:24.071Z,99112.28
2022-10-08T20:58:51.326Z,99109.13
2022-10-08T21:01:20.959Z,99116.44
2022-10-08T21:03:48.014Z,99104.38
2022-10-08T21:06:18.783Z,99109.25
2022-10-08T21:08:47.598Z,99109.38
2022-10-08T21:11:18.138Z,99112.75
2022-10-08T21:13:45.437Z,99118.53
2022-10-08T21:16:17.115Z,99127.22
2022-10-08T21:18:44.236Z,99128.63
2022-10-08T21:21:14.124Z,99123.97
2022-10-08T21:23:41.788Z,99124.09
2022-10-08T21:26:11.826Z,99120.84
2022-10-08T21:28:39.448Z,99115.97
2022-10-08T21:31:07.864Z,99112.97
2022-10-08T21:33:36.086Z,99119.47
2022-10-08T21:36:03.943Z,99129.75
2022-10-08T21:38:36.530Z,99138.13
2022-10-08T21:41:11.775Z,99137.19
2022-10-08T21:43:40.157Z,99134.41
2022-10-08T21:46:08.133Z,99129.41
2022-10-08T21:48:34.869Z,99145.53
2022-10-08T21:51:07.253Z,99143.28
2022-10-08T21:53:35.894Z,99150.53
2022-10-08T21:56:06.782Z,99152.13
2022-10-08T21:58:39.095Z,99154.00
2022-10-08T22:01:18.023Z,99157.56
2022-10-08T22:03:44.726Z,99157.81
2022-10-08T22:06:11.366Z,99145.88
2022-10-08T22:08:38.087Z,99141.03
2022-10-08T22:11:06.142Z,99158.03
2022-10-08T22:13:33.284Z,99163.25
2022-10-08T22:16:02.433Z,99149.13
2022-10-08T22:18:30.671Z,99157.19
2022-10-08T22:21:02.230Z,99160.47
2022-10-08T22:23:28.866Z,99161.38
2022-10-08T22:25:57.698Z,99162.53
2022-10-08T22:28:25.675Z,99170.53
2022-10-08T22:30:52.505Z,99166.94
2022-10-08T22:33:19.919Z,99159.56
2022-10-08T22:35:47.445Z,99156.16
2022-10-08T22:38:14.184Z,99162.88
2022-10-08T22:40:40.929Z,99160.81
2022-10-08T22:43:07.593Z,99163.91
2022-10-08T22:45:39.528Z,99168.88
2022-10-08T22:48:06.234Z,99167.84
2022-10-08T22:50:35.639Z,99176.50
2022-10-08T22:53:02.499Z,99170.75
2022-10-08T22:55:29.632Z,99175.75
2022-10-08T22:57:57.220Z,99178.72
2022-10-08T23:00:24.043Z,99178.59
2022-10-08T23:02:51.004Z,99178.78
2022-10-08T23:05:17.878Z,99173.56
2022-10-08T23:07:44.505Z,99174.97
2022-10-08T23:10:11.129Z,99167.81
2022-10-08T23:12:37.929Z,99169.06
2022-10-08T23:15:04.841Z,99180.38
2022-10-08T23:17:31.525Z,99188.69
2022-10-08T23:19:58.210Z,99187.50
2022-10-08T23:22:25.225Z,99193.47
2022-10-08T23:24:51.844Z,99185.94
2022-10-08T23:27:18.469Z,99195.09
2022-10-08T23:29:45.149Z,99195.94
2022-10-08T23:32:11.783Z,99194.31
2022-10-08T23:34:38.442Z,99203.09
2022-10-08T23:37:05.036Z,99207.00
2022-10-08T23:39:31.637Z,99210.34
2022-10-08T23:41:59.642Z,99216.25
2022-10-08T23:44:26.361Z,99212.00
2022-10-08T23:46:52.996Z,99219.38
2022-10-08T23:49:19.685Z,99214.66
2022-10-08T23:51:46.471Z,99211.38
2022-10-08T23:54:13.095Z,99217.50
2022-10-08T23:56:39.669Z,99209.19
2022-10-08T23:59:06.390Z,99205.59
